sensor_id;sensor_type;location;lat;lon;timestamp;temperature;humidity
19256;DHT22;9762;52.490;13.410;2023-06-14T00:04:01;20.70;65.80
19256;DHT22;9762;52.490;13.410;2023-06-14T00:06:28;20.70;65.60
19256;DHT22;9762;52.490;13.410;2023-06-14T00:08:54;20.70;65.90
19256;DHT22;9762;52.490;13.410;2023-06-14T00:11:20;20.60;66.30
19256;DHT22;9762;52.490;13.410;2023-06-14T00:13:46;20.60;66.50
19256;DHT22;9762;52.490;13.410;2023-06-14T00:16:12;20.60;66.60
19256;DHT22;9762;52.490;13.410;2023-06-14T00:18:38;20.50;67.00
19256;DHT22;9762;52.490;13.410;2023-06-14T00:21:04;20.40;67.50
19256;DHT22;9762;52.490;13.410;2023-06-14T00:23:30;20.40;67.30
19256;DHT22;9762;52.490;13.410;2023-06-14T00:25:56;20.40;67.80
19256;DHT22;9762;52.490;13.410;2023-06-14T00:28:22;20.40;68.10
19256;DHT22;9762;52.490;13.410;2023-06-14T00:30:47;20.40;68.10
19256;DHT22;9762;52.490;13.410;2023-06-14T00:33:13;20.30;68.90
19256;DHT22;9762;52.490;13.410;2023-06-14T00:35:39;20.30;69.10
19256;DHT22;9762;52.490;13.410;2023-06-14T00:38:05;20.10;69.50
19256;DHT22;9762;52.490;13.410;2023-06-14T00:40:31;20.10;69.80
19256;DHT22;9762;52.490;13.410;2023-06-14T00:42:56;20.20;69.60
19256;DHT22;9762;52.490;13.410;2023-06-14T00:45:22;20.20;69.70
19256;DHT22;9762;52.490;13.410;2023-06-14T00:47:48;20.10;70.60
19256;DHT22;9762;52.490;13.410;2023-06-14T00:50:16;20.00;71.00
19256;DHT22;9762;52.490;13.410;2023-06-14T00:52:42;19.90;71.40
19256;DHT22;9762;52.490;13.410;2023-06-14T00:55:08;19.90;71.70
19256;DHT22;9762;52.490;13.410;2023-06-14T00:57:34;19.80;74.60
19256;DHT22;9762;52.490;13.410;2023-06-14T01:00:03;19.80;72.30
19256;DHT22;9762;52.490;13.410;2023-06-14T01:02:34;19.70;72.60
19256;DHT22;9762;52.490;13.410;2023-06-14T01:04:59;19.80;72.10
19256;DHT22;9762;52.490;13.410;2023-06-14T01:15:31;19.70;73.30
19256;DHT22;9762;52.490;13.410;2023-06-14T01:17:57;19.80;73.00
19256;DHT22;9762;52.490;13.410;2023-06-14T01:20:29;19.80;73.10
19256;DHT22;9762;52.490;13.410;2023-06-14T01:22:56;19.90;73.50
19256;DHT22;9762;52.490;13.410;2023-06-14T01:25:23;19.90;73.00
19256;DHT22;9762;52.490;13.410;2023-06-14T01:27:50;20.00;72.80
19256;DHT22;9762;52.490;13.410;2023-06-14T01:30:17;20.10;73.60
19256;DHT22;9762;52.490;13.410;2023-06-14T01:32:44;20.00;72.40
19256;DHT22;9762;52.490;13.410;2023-06-14T01:35:10;20.10;72.50
19256;DHT22;9762;52.490;13.410;2023-06-14T01:37:36;20.10;72.30
19256;DHT22;9762;52.490;13.410;2023-06-14T01:40:04;20.10;72.60
19256;DHT22;9762;52.490;13.410;2023-06-14T01:42:36;20.10;72.70
19256;DHT22;9762;52.490;13.410;2023-06-14T01:45:04;20.10;72.60
19256;DHT22;9762;52.490;13.410;2023-06-14T01:47:31;20.00;72.60
19256;DHT22;9762;52.490;13.410;2023-06-14T01:49:58;20.10;72.70
19256;DHT22;9762;52.490;13.410;2023-06-14T01:52:24;20.00;72.70
19256;DHT22;9762;52.490;13.410;2023-06-14T01:54:50;20.10;72.50
19256;DHT22;9762;52.490;13.410;2023-06-14T01:57:16;20.10;72.60
19256;DHT22;9762;52.490;13.410;2023-06-14T01:59:41;20.10;72.50
19256;DHT22;9762;52.490;13.410;2023-06-14T02:02:07;20.00;73.10
19256;DHT22;9762;52.490;13.410;2023-06-14T02:04:33;19.90;73.30
19256;DHT22;9762;52.490;13.410;2023-06-14T02:06:58;19.80;73.50
19256;DHT22;9762;52.490;13.410;2023-06-14T02:09:24;19.80;73.60
19256;DHT22;9762;52.490;13.410;2023-06-14T02:11:50;19.60;74.50
19256;DHT22;9762;52.490;13.410;2023-06-14T02:14:16;19.60;74.80
19256;DHT22;9762;52.490;13.410;2023-06-14T02:16:42;19.50;75.40
19256;DHT22;9762;52.490;13.410;2023-06-14T02:19:15;19.50;75.70
19256;DHT22;9762;52.490;13.410;2023-06-14T02:21:41;19.40;75.60
19256;DHT22;9762;52.490;13.410;2023-06-14T02:24:07;19.40;75.90
19256;DHT22;9762;52.490;13.410;2023-06-14T02:26:33;19.40;76.00
19256;DHT22;9762;52.490;13.410;2023-06-14T02:28:58;19.40;76.00
19256;DHT22;9762;52.490;13.410;2023-06-14T02:31:25;19.20;76.90
19256;DHT22;9762;52.490;13.410;2023-06-14T02:33:50;19.10;77.50
19256;DHT22;9762;52.490;13.410;2023-06-14T02:36:16;18.90;79.40
19256;DHT22;9762;52.490;13.410;2023-06-14T02:38:42;19.10;82.90
19256;DHT22;9762;52.490;13.410;2023-06-14T02:41:07;19.20;82.10
19256;DHT22;9762;52.490;13.410;2023-06-14T02:43:33;19.20;81.60
19256;DHT22;9762;52.490;13.410;2023-06-14T02:50:51;19.30;76.40
19256;DHT22;9762;52.490;13.410;2023-06-14T02:53:16;19.30;77.00
19256;DHT22;9762;52.490;13.410;2023-06-14T02:55:42;19.40;77.10
19256;DHT22;9762;52.490;13.410;2023-06-14T02:58:08;19.40;77.00
19256;DHT22;9762;52.490;13.410;2023-06-14T03:00:34;19.40;76.90
19256;DHT22;9762;52.490;13.410;2023-06-14T03:03:01;19.40;76.90
19256;DHT22;9762;52.490;13.410;2023-06-14T03:05:27;19.50;76.80
19256;DHT22;9762;52.490;13.410;2023-06-14T03:07:53;19.40;76.80
19256;DHT22;9762;52.490;13.410;2023-06-14T03:10:19;19.40;77.00
19256;DHT22;9762;52.490;13.410;2023-06-14T03:12:45;19.40;77.00
19256;DHT22;9762;52.490;13.410;2023-06-14T03:15:10;19.40;77.10
19256;DHT22;9762;52.490;13.410;2023-06-14T03:17:38;19.40;76.90
19256;DHT22;9762;52.490;13.410;2023-06-14T03:20:04;19.50;77.00
19256;DHT22;9762;52.490;13.410;2023-06-14T03:22:31;19.50;76.80
19256;DHT22;9762;52.490;13.410;2023-06-14T03:24:58;19.50;76.60
19256;DHT22;9762;52.490;13.410;2023-06-14T03:27:24;19.60;76.50
19256;DHT22;9762;52.490;13.410;2023-06-14T03:29:51;19.60;76.40
19256;DHT22;9762;52.490;13.410;2023-06-14T03:32:16;19.70;76.20
19256;DHT22;9762;52.490;13.410;2023-06-14T03:34:42;19.70;76.30
19256;DHT22;9762;52.490;13.410;2023-06-14T03:37:10;19.70;76.20
19256;DHT22;9762;52.490;13.410;2023-06-14T03:39:35;19.70;76.10
19256;DHT22;9762;52.490;13.410;2023-06-14T03:42:02;19.70;75.90
19256;DHT22;9762;52.490;13.410;2023-06-14T03:44:27;19.80;75.80
19256;DHT22;9762;52.490;13.410;2023-06-14T03:46:53;19.80;75.70
19256;DHT22;9762;52.490;13.410;2023-06-14T03:49:19;19.80;75.70
19256;DHT22;9762;52.490;13.410;2023-06-14T03:51:44;19.80;75.60
19256;DHT22;9762;52.490;13.410;2023-06-14T03:54:11;19.90;75.50
19256;DHT22;9762;52.490;13.410;2023-06-14T03:56:36;19.90;75.50
19256;DHT22;9762;52.490;13.410;2023-06-14T03:59:02;19.90;75.20
19256;DHT22;9762;52.490;13.410;2023-06-14T04:01:28;20.00;75.00
19256;DHT22;9762;52.490;13.410;2023-06-14T04:03:56;20.00;74.90
19256;DHT22;9762;52.490;13.410;2023-06-14T04:06:22;20.10;74.70
19256;DHT22;9762;52.490;13.410;2023-06-14T04:08:50;20.10;74.60
19256;DHT22;9762;52.490;13.410;2023-06-14T04:11:16;20.20;74.50
19256;DHT22;9762;52.490;13.410;2023-06-14T04:13:42;20.20;74.60
19256;DHT22;9762;52.490;13.410;2023-06-14T04:16:07;20.20;74.60
19256;DHT22;9762;52.490;13.410;2023-06-14T04:18:33;20.10;74.80
19256;DHT22;9762;52.490;13.410;2023-06-14T04:20:58;20.10;74.90
19256;DHT22;9762;52.490;13.410;2023-06-14T04:23:24;20.10;75.70
19256;DHT22;9762;52.490;13.410;2023-06-14T04:25:50;20.20;74.70
19256;DHT22;9762;52.490;13.410;2023-06-14T04:28:16;20.20;74.50
19256;DHT22;9762;52.490;13.410;2023-06-14T04:30:43;20.30;74.30
19256;DHT22;9762;52.490;13.410;2023-06-14T04:33:10;20.30;74.10
19256;DHT22;9762;52.490;13.410;2023-06-14T04:35:36;20.30;74.10
19256;DHT22;9762;52.490;13.410;2023-06-14T04:38:03;20.20;74.30
19256;DHT22;9762;52.490;13.410;2023-06-14T04:40:35;20.20;74.40
19256;DHT22;9762;52.490;13.410;2023-06-14T04:43:08;20.20;74.40
19256;DHT22;9762;52.490;13.410;2023-06-14T04:45:34;20.20;74.30
19256;DHT22;9762;52.490;13.410;2023-06-14T04:47:59;20.30;74.50
19256;DHT22;9762;52.490;13.410;2023-06-14T04:50:25;20.30;74.20
19256;DHT22;9762;52.490;13.410;2023-06-14T04:52:52;20.40;74.00
19256;DHT22;9762;52.490;13.410;2023-06-14T04:55:19;20.40;74.00
19256;DHT22;9762;52.490;13.410;2023-06-14T04:57:45;20.50;73.80
19256;DHT22;9762;52.490;13.410;2023-06-14T05:00:11;20.50;73.70
19256;DHT22;9762;52.490;13.410;2023-06-14T05:02:37;20.60;73.50
19256;DHT22;9762;52.490;13.410;2023-06-14T05:05:04;20.60;73.20
19256;DHT22;9762;52.490;13.410;2023-06-14T05:07:34;20.60;72.80
19256;DHT22;9762;52.490;13.410;2023-06-14T05:10:00;20.60;72.80
19256;DHT22;9762;52.490;13.410;2023-06-14T05:12:25;20.60;73.60
19256;DHT22;9762;52.490;13.410;2023-06-14T05:14:51;20.60;73.20
19256;DHT22;9762;52.490;13.410;2023-06-14T05:17:18;20.60;72.70
19256;DHT22;9762;52.490;13.410;2023-06-14T05:19:43;20.70;72.50
19256;DHT22;9762;52.490;13.410;2023-06-14T05:22:09;20.70;72.20
19256;DHT22;9762;52.490;13.410;2023-06-14T05:24:35;20.70;72.50
19256;DHT22;9762;52.490;13.410;2023-06-14T05:27:01;20.60;72.50
19256;DHT22;9762;52.490;13.410;2023-06-14T05:29:26;20.60;72.80
19256;DHT22;9762;52.490;13.410;2023-06-14T05:31:52;20.70;72.70
19256;DHT22;9762;52.490;13.410;2023-06-14T05:34:18;20.70;72.50
19256;DHT22;9762;52.490;13.410;2023-06-14T05:36:44;20.60;72.50
19256;DHT22;9762;52.490;13.410;2023-06-14T05:39:10;20.70;72.30
19256;DHT22;9762;52.490;13.410;2023-06-14T05:41:36;20.80;72.40
19256;DHT22;9762;52.490;13.410;2023-06-14T05:44:01;20.90;72.50
19256;DHT22;9762;52.490;13.410;2023-06-14T05:46:27;21.00;72.30
19256;DHT22;9762;52.490;13.410;2023-06-14T05:48:54;21.10;72.10
19256;DHT22;9762;52.490;13.410;2023-06-14T05:51:20;21.20;72.10
19256;DHT22;9762;52.490;13.410;2023-06-14T05:53:49;21.30;72.00
19256;DHT22;9762;52.490;13.410;2023-06-14T05:56:16;21.20;71.60
19256;DHT22;9762;52.490;13.410;2023-06-14T05:58:45;21.30;71.70
19256;DHT22;9762;52.490;13.410;2023-06-14T06:01:11;21.40;71.30
19256;DHT22;9762;52.490;13.410;2023-06-14T06:03:38;21.40;71.20
19256;DHT22;9762;52.490;13.410;2023-06-14T06:06:04;21.50;71.00
19256;DHT22;9762;52.490;13.410;2023-06-14T06:08:30;21.60;70.80
19256;DHT22;9762;52.490;13.410;2023-06-14T06:10:56;21.70;70.70
19256;DHT22;9762;52.490;13.410;2023-06-14T06:13:22;21.70;70.50
19256;DHT22;9762;52.490;13.410;2023-06-14T06:15:48;21.80;70.20
19256;DHT22;9762;52.490;13.410;2023-06-14T06:18:14;21.80;70.00
19256;DHT22;9762;52.490;13.410;2023-06-14T06:20:39;21.80;69.70
19256;DHT22;9762;52.490;13.410;2023-06-14T06:23:05;21.80;69.90
19256;DHT22;9762;52.490;13.410;2023-06-14T06:25:30;21.70;70.00
19256;DHT22;9762;52.490;13.410;2023-06-14T06:27:57;21.70;69.90
19256;DHT22;9762;52.490;13.410;2023-06-14T06:30:23;21.80;69.80
19256;DHT22;9762;52.490;13.410;2023-06-14T06:32:49;21.80;69.90
19256;DHT22;9762;52.490;13.410;2023-06-14T06:35:16;21.80;69.90
19256;DHT22;9762;52.490;13.410;2023-06-14T06:37:42;21.90;69.90
19256;DHT22;9762;52.490;13.410;2023-06-14T06:40:08;21.90;69.80
19256;DHT22;9762;52.490;13.410;2023-06-14T06:42:34;21.90;70.10
19256;DHT22;9762;52.490;13.410;2023-06-14T06:45:00;21.90;69.80
19256;DHT22;9762;52.490;13.410;2023-06-14T06:47:26;21.90;69.70
19256;DHT22;9762;52.490;13.410;2023-06-14T06:49:52;22.00;69.70
19256;DHT22;9762;52.490;13.410;2023-06-14T06:52:17;22.00;69.60
19256;DHT22;9762;52.490;13.410;2023-06-14T06:54:43;22.00;69.50
19256;DHT22;9762;52.490;13.410;2023-06-14T06:57:09;22.10;69.50
19256;DHT22;9762;52.490;13.410;2023-06-14T06:59:36;22.10;69.50
19256;DHT22;9762;52.490;13.410;2023-06-14T07:02:02;22.10;69.40
19256;DHT22;9762;52.490;13.410;2023-06-14T07:04:27;22.20;69.40
19256;DHT22;9762;52.490;13.410;2023-06-14T07:06:53;22.20;69.30
19256;DHT22;9762;52.490;13.410;2023-06-14T07:09:18;22.30;70.60
19256;DHT22;9762;52.490;13.410;2023-06-14T07:14:11;22.40;67.80
19256;DHT22;9762;52.490;13.410;2023-06-14T07:16:37;22.40;68.50
19256;DHT22;9762;52.490;13.410;2023-06-14T07:19:03;22.50;68.60
19256;DHT22;9762;52.490;13.410;2023-06-14T07:21:29;22.60;68.60
19256;DHT22;9762;52.490;13.410;2023-06-14T07:23:57;22.60;69.10
19256;DHT22;9762;52.490;13.410;2023-06-14T07:26:23;22.60;68.00
19256;DHT22;9762;52.490;13.410;2023-06-14T07:28:49;22.60;68.00
19256;DHT22;9762;52.490;13.410;2023-06-14T07:31:18;22.60;67.90
19256;DHT22;9762;52.490;13.410;2023-06-14T07:33:45;22.60;67.80
19256;DHT22;9762;52.490;13.410;2023-06-14T07:36:11;22.80;67.80
19256;DHT22;9762;52.490;13.410;2023-06-14T07:38:36;22.80;67.30
19256;DHT22;9762;52.490;13.410;2023-06-14T07:41:02;22.90;67.50
19256;DHT22;9762;52.490;13.410;2023-06-14T07:43:28;23.00;67.70
19256;DHT22;9762;52.490;13.410;2023-06-14T07:45:54;23.10;67.50
19256;DHT22;9762;52.490;13.410;2023-06-14T07:48:20;23.10;66.90
19256;DHT22;9762;52.490;13.410;2023-06-14T07:50:46;23.10;66.80
19256;DHT22;9762;52.490;13.410;2023-06-14T07:53:12;23.20;66.80
19256;DHT22;9762;52.490;13.410;2023-06-14T07:55:37;23.30;66.90
19256;DHT22;9762;52.490;13.410;2023-06-14T07:58:04;23.30;66.50
19256;DHT22;9762;52.490;13.410;2023-06-14T08:00:30;23.40;66.30
19256;DHT22;9762;52.490;13.410;2023-06-14T08:02:56;23.40;66.30
19256;DHT22;9762;52.490;13.410;2023-06-14T08:05:28;23.40;66.10
19256;DHT22;9762;52.490;13.410;2023-06-14T08:07:55;23.30;66.00
19256;DHT22;9762;52.490;13.410;2023-06-14T08:10:21;23.40;65.90
19256;DHT22;9762;52.490;13.410;2023-06-14T08:15:17;24.80;66.40
19256;DHT22;9762;52.490;13.410;2023-06-14T08:17:46;23.60;65.30
19256;DHT22;9762;52.490;13.410;2023-06-14T08:20:12;23.60;65.20
19256;DHT22;9762;52.490;13.410;2023-06-14T08:22:39;23.60;65.20
19256;DHT22;9762;52.490;13.410;2023-06-14T08:25:08;23.60;64.70
19256;DHT22;9762;52.490;13.410;2023-06-14T08:27:34;23.50;64.80
19256;DHT22;9762;52.490;13.410;2023-06-14T08:30:00;23.40;65.00
19256;DHT22;9762;52.490;13.410;2023-06-14T08:32:25;23.50;65.10
19256;DHT22;9762;52.490;13.410;2023-06-14T08:34:51;23.50;65.20
19256;DHT22;9762;52.490;13.410;2023-06-14T08:37:17;23.60;65.20
19256;DHT22;9762;52.490;13.410;2023-06-14T08:39:42;23.50;64.60
19256;DHT22;9762;52.490;13.410;2023-06-14T08:42:09;23.60;64.60
19256;DHT22;9762;52.490;13.410;2023-06-14T08:44:36;23.60;64.10
19256;DHT22;9762;52.490;13.410;2023-06-14T08:47:02;23.70;64.20
19256;DHT22;9762;52.490;13.410;2023-06-14T08:49:29;23.80;64.00
19256;DHT22;9762;52.490;13.410;2023-06-14T08:52:00;23.80;63.40
19256;DHT22;9762;52.490;13.410;2023-06-14T08:54:28;23.80;62.80
19256;DHT22;9762;52.490;13.410;2023-06-14T08:56:56;23.90;62.80
19256;DHT22;9762;52.490;13.410;2023-06-14T08:59:31;23.90;62.30
19256;DHT22;9762;52.490;13.410;2023-06-14T09:02:05;24.00;62.80
19256;DHT22;9762;52.490;13.410;2023-06-14T09:04:31;23.90;61.80
19256;DHT22;9762;52.490;13.410;2023-06-14T09:06:57;23.90;62.00
19256;DHT22;9762;52.490;13.410;2023-06-14T09:09:24;23.90;62.10
19256;DHT22;9762;52.490;13.410;2023-06-14T09:11:51;24.10;62.80
19256;DHT22;9762;52.490;13.410;2023-06-14T09:14:18;24.20;61.90
19256;DHT22;9762;52.490;13.410;2023-06-14T09:16:44;24.30;61.90
19256;DHT22;9762;52.490;13.410;2023-06-14T09:19:14;24.40;61.80
19256;DHT22;9762;52.490;13.410;2023-06-14T09:21:47;24.40;61.70
19256;DHT22;9762;52.490;13.410;2023-06-14T09:24:14;24.40;61.60
19256;DHT22;9762;52.490;13.410;2023-06-14T09:26:39;24.50;61.80
19256;DHT22;9762;52.490;13.410;2023-06-14T09:29:06;24.60;61.90
19256;DHT22;9762;52.490;13.410;2023-06-14T09:31:32;24.70;61.20
19256;DHT22;9762;52.490;13.410;2023-06-14T09:33:58;24.70;60.80
19256;DHT22;9762;52.490;13.410;2023-06-14T09:36:26;24.70;60.30
19256;DHT22;9762;52.490;13.410;2023-06-14T09:38:57;24.70;59.50
19256;DHT22;9762;52.490;13.410;2023-06-14T09:41:35;24.70;59.30
19256;DHT22;9762;52.490;13.410;2023-06-14T09:44:02;24.60;59.40
19256;DHT22;9762;52.490;13.410;2023-06-14T09:46:29;24.70;59.30
19256;DHT22;9762;52.490;13.410;2023-06-14T09:48:58;24.60;59.30
19256;DHT22;9762;52.490;13.410;2023-06-14T09:51:25;24.50;59.60
19256;DHT22;9762;52.490;13.410;2023-06-14T09:53:51;24.40;60.30
19256;DHT22;9762;52.490;13.410;2023-06-14T09:56:27;24.40;60.30
19256;DHT22;9762;52.490;13.410;2023-06-14T09:58:56;24.50;60.20
19256;DHT22;9762;52.490;13.410;2023-06-14T10:01:27;24.50;60.20
19256;DHT22;9762;52.490;13.410;2023-06-14T10:03:58;24.60;60.20
19256;DHT22;9762;52.490;13.410;2023-06-14T10:06:28;24.70;60.00
19256;DHT22;9762;52.490;13.410;2023-06-14T10:08:57;24.90;59.90
19256;DHT22;9762;52.490;13.410;2023-06-14T10:11:25;25.00;59.60
19256;DHT22;9762;52.490;13.410;2023-06-14T10:13:51;24.90;59.10
19256;DHT22;9762;52.490;13.410;2023-06-14T10:16:28;24.90;59.30
19256;DHT22;9762;52.490;13.410;2023-06-14T10:19:17;25.00;59.10
19256;DHT22;9762;52.490;13.410;2023-06-14T10:22:01;25.10;58.70
19256;DHT22;9762;52.490;13.410;2023-06-14T10:24:33;25.00;58.70
19256;DHT22;9762;52.490;13.410;2023-06-14T10:26:59;25.00;59.00
19256;DHT22;9762;52.490;13.410;2023-06-14T10:29:27;25.10;58.90
19256;DHT22;9762;52.490;13.410;2023-06-14T10:31:58;25.10;58.50
19256;DHT22;9762;52.490;13.410;2023-06-14T10:34:25;25.00;58.30
19256;DHT22;9762;52.490;13.410;2023-06-14T10:37:12;24.90;58.20
19256;DHT22;9762;52.490;13.410;2023-06-14T10:39:45;24.90;58.20
19256;DHT22;9762;52.490;13.410;2023-06-14T10:42:12;24.90;58.40
19256;DHT22;9762;52.490;13.410;2023-06-14T10:44:42;25.00;58.50
19256;DHT22;9762;52.490;13.410;2023-06-14T10:47:28;24.90;58.50
19256;DHT22;9762;52.490;13.410;2023-06-14T10:50:05;24.70;58.70
19256;DHT22;9762;52.490;13.410;2023-06-14T10:52:34;24.80;58.80
19256;DHT22;9762;52.490;13.410;2023-06-14T10:55:08;24.70;59.50
19256;DHT22;9762;52.490;13.410;2023-06-14T10:57:37;24.80;58.90
19256;DHT22;9762;52.490;13.410;2023-06-14T11:00:07;24.90;58.80
19256;DHT22;9762;52.490;13.410;2023-06-14T11:05:14;25.10;59.00
19256;DHT22;9762;52.490;13.410;2023-06-14T11:07:55;25.10;58.70
19256;DHT22;9762;52.490;13.410;2023-06-14T11:13:07;25.20;58.60
19256;DHT22;9762;52.490;13.410;2023-06-14T11:15:35;25.20;58.50
19256;DHT22;9762;52.490;13.410;2023-06-14T11:18:05;25.30;58.50
19256;DHT22;9762;52.490;13.410;2023-06-14T11:20:34;25.40;58.10
19256;DHT22;9762;52.490;13.410;2023-06-14T11:23:01;25.40;58.00
19256;DHT22;9762;52.490;13.410;2023-06-14T11:25:27;25.50;57.70
19256;DHT22;9762;52.490;13.410;2023-06-14T11:27:56;25.60;57.60
19256;DHT22;9762;52.490;13.410;2023-06-14T11:30:22;25.70;57.30
19256;DHT22;9762;52.490;13.410;2023-06-14T11:32:52;25.80;57.30
19256;DHT22;9762;52.490;13.410;2023-06-14T11:35:19;26.00;57.10
19256;DHT22;9762;52.490;13.410;2023-06-14T11:37:48;26.10;56.90
19256;DHT22;9762;52.490;13.410;2023-06-14T11:40:15;26.20;56.60
19256;DHT22;9762;52.490;13.410;2023-06-14T11:42:41;26.20;56.00
19256;DHT22;9762;52.490;13.410;2023-06-14T11:45:11;26.30;56.00
19256;DHT22;9762;52.490;13.410;2023-06-14T11:47:38;26.30;56.00
19256;DHT22;9762;52.490;13.410;2023-06-14T11:50:06;26.40;55.90
19256;DHT22;9762;52.490;13.410;2023-06-14T11:52:32;26.40;55.70
19256;DHT22;9762;52.490;13.410;2023-06-14T11:54:58;26.50;55.10
19256;DHT22;9762;52.490;13.410;2023-06-14T11:57:25;26.50;55.10
19256;DHT22;9762;52.490;13.410;2023-06-14T11:59:51;26.50;54.80
19256;DHT22;9762;52.490;13.410;2023-06-14T12:02:19;26.50;54.90
19256;DHT22;9762;52.490;13.410;2023-06-14T12:04:48;26.60;55.10
19256;DHT22;9762;52.490;13.410;2023-06-14T12:07:18;26.80;55.60
19256;DHT22;9762;52.490;13.410;2023-06-14T12:12:26;27.10;54.40
19256;DHT22;9762;52.490;13.410;2023-06-14T12:14:53;27.20;57.70
19256;DHT22;9762;52.490;13.410;2023-06-14T12:17:19;27.40;53.00
19256;DHT22;9762;52.490;13.410;2023-06-14T12:19:46;27.50;54.10
19256;DHT22;9762;52.490;13.410;2023-06-14T12:22:15;27.60;52.80
19256;DHT22;9762;52.490;13.410;2023-06-14T12:24:45;27.70;52.10
19256;DHT22;9762;52.490;13.410;2023-06-14T12:27:11;27.80;52.00
19256;DHT22;9762;52.490;13.410;2023-06-14T12:29:41;27.90;51.10
19256;DHT22;9762;52.490;13.410;2023-06-14T12:32:09;28.00;52.10
19256;DHT22;9762;52.490;13.410;2023-06-14T12:34:35;28.10;50.80
19256;DHT22;9762;52.490;13.410;2023-06-14T12:37:01;28.10;50.70
19256;DHT22;9762;52.490;13.410;2023-06-14T12:39:29;28.10;51.40
19256;DHT22;9762;52.490;13.410;2023-06-14T12:41:57;28.20;50.80
19256;DHT22;9762;52.490;13.410;2023-06-14T12:44:22;28.30;50.70
19256;DHT22;9762;52.490;13.410;2023-06-14T12:46:48;28.40;50.50
19256;DHT22;9762;52.490;13.410;2023-06-14T12:49:16;28.40;49.90
19256;DHT22;9762;52.490;13.410;2023-06-14T12:51:42;28.60;59.70
19256;DHT22;9762;52.490;13.410;2023-06-14T12:54:07;28.70;59.10
19256;DHT22;9762;52.490;13.410;2023-06-14T12:56:33;28.80;59.20
19256;DHT22;9762;52.490;13.410;2023-06-14T12:58:59;28.70;58.60
19256;DHT22;9762;52.490;13.410;2023-06-14T13:01:24;28.80;59.30
19256;DHT22;9762;52.490;13.410;2023-06-14T13:03:50;29.10;61.30
19256;DHT22;9762;52.490;13.410;2023-06-14T13:08:47;29.30;79.30
19256;DHT22;9762;52.490;13.410;2023-06-14T13:11:12;29.50;58.70
19256;DHT22;9762;52.490;13.410;2023-06-14T13:16:04;30.10;82.20
19256;DHT22;9762;52.490;13.410;2023-06-14T13:18:29;30.10;57.60
19256;DHT22;9762;52.490;13.410;2023-06-14T13:20:55;30.10;56.30
19256;DHT22;9762;52.490;13.410;2023-06-14T13:23:21;30.00;56.10
19256;DHT22;9762;52.490;13.410;2023-06-14T13:25:46;29.80;56.50
19256;DHT22;9762;52.490;13.410;2023-06-14T13:28:15;29.90;56.70
19256;DHT22;9762;52.490;13.410;2023-06-14T13:30:40;29.70;56.20
19256;DHT22;9762;52.490;13.410;2023-06-14T13:33:06;29.60;56.40
19256;DHT22;9762;52.490;13.410;2023-06-14T13:35:32;29.60;56.80
19256;DHT22;9762;52.490;13.410;2023-06-14T13:37:57;29.70;56.50
19256;DHT22;9762;52.490;13.410;2023-06-14T13:40:23;30.00;57.20
19256;DHT22;9762;52.490;13.410;2023-06-14T13:42:49;29.80;57.20
19256;DHT22;9762;52.490;13.410;2023-06-14T13:45:15;30.00;56.20
19256;DHT22;9762;52.490;13.410;2023-06-14T13:47:41;30.10;55.70
19256;DHT22;9762;52.490;13.410;2023-06-14T13:50:07;30.10;55.40
19256;DHT22;9762;52.490;13.410;2023-06-14T13:52:33;30.30;55.40
19256;DHT22;9762;52.490;13.410;2023-06-14T13:55:00;30.20;55.90
19256;DHT22;9762;52.490;13.410;2023-06-14T13:57:26;30.50;56.00
19256;DHT22;9762;52.490;13.410;2023-06-14T13:59:52;30.80;44.20
19256;DHT22;9762;52.490;13.410;2023-06-14T14:02:20;31.00;42.80
19256;DHT22;9762;52.490;13.410;2023-06-14T14:04:46;31.30;43.40
19256;DHT22;9762;52.490;13.410;2023-06-14T14:07:18;31.40;42.60
19256;DHT22;9762;52.490;13.410;2023-06-14T14:09:44;31.40;42.30
19256;DHT22;9762;52.490;13.410;2023-06-14T14:12:10;31.60;42.70
19256;DHT22;9762;52.490;13.410;2023-06-14T14:14:36;31.70;42.10
19256;DHT22;9762;52.490;13.410;2023-06-14T14:17:02;31.70;41.70
19256;DHT22;9762;52.490;13.410;2023-06-14T14:19:28;31.80;41.50
19256;DHT22;9762;52.490;13.410;2023-06-14T14:21:54;31.90;41.70
19256;DHT22;9762;52.490;13.410;2023-06-14T14:24:19;31.90;41.60
19256;DHT22;9762;52.490;13.410;2023-06-14T14:26:45;31.90;41.70
19256;DHT22;9762;52.490;13.410;2023-06-14T14:29:14;31.90;41.90
19256;DHT22;9762;52.490;13.410;2023-06-14T14:31:39;31.60;41.10
19256;DHT22;9762;52.490;13.410;2023-06-14T14:34:05;31.40;41.30
19256;DHT22;9762;52.490;13.410;2023-06-14T14:36:31;31.20;41.30
19256;DHT22;9762;52.490;13.410;2023-06-14T14:38:58;30.80;42.10
19256;DHT22;9762;52.490;13.410;2023-06-14T14:41:24;30.50;42.30
19256;DHT22;9762;52.490;13.410;2023-06-14T14:43:49;30.40;42.80
19256;DHT22;9762;52.490;13.410;2023-06-14T14:46:15;30.30;43.20
19256;DHT22;9762;52.490;13.410;2023-06-14T14:48:42;30.10;42.90
19256;DHT22;9762;52.490;13.410;2023-06-14T14:51:07;29.80;42.80
19256;DHT22;9762;52.490;13.410;2023-06-14T14:53:33;29.50;42.90
19256;DHT22;9762;52.490;13.410;2023-06-14T14:55:59;29.20;43.00
19256;DHT22;9762;52.490;13.410;2023-06-14T14:58:25;29.00;43.40
19256;DHT22;9762;52.490;13.410;2023-06-14T15:00:50;28.90;43.30
19256;DHT22;9762;52.490;13.410;2023-06-14T15:03:16;28.60;43.60
19256;DHT22;9762;52.490;13.410;2023-06-14T15:05:42;28.30;45.00
19256;DHT22;9762;52.490;13.410;2023-06-14T15:08:08;28.10;45.70
19256;DHT22;9762;52.490;13.410;2023-06-14T15:10:37;28.00;46.20
19256;DHT22;9762;52.490;13.410;2023-06-14T15:13:06;27.90;47.00
19256;DHT22;9762;52.490;13.410;2023-06-14T15:15:32;27.50;47.10
19256;DHT22;9762;52.490;13.410;2023-06-14T15:17:59;27.10;67.00
19256;DHT22;9762;52.490;13.410;2023-06-14T15:20:25;26.80;60.20
19256;DHT22;9762;52.490;13.410;2023-06-14T15:22:51;26.50;58.00
19256;DHT22;9762;52.490;13.410;2023-06-14T15:25:17;26.50;56.90
19256;DHT22;9762;52.490;13.410;2023-06-14T15:27:43;26.40;56.80
19256;DHT22;9762;52.490;13.410;2023-06-14T15:30:09;26.30;55.30
19256;DHT22;9762;52.490;13.410;2023-06-14T15:32:35;26.20;49.30
19256;DHT22;9762;52.490;13.410;2023-06-14T15:35:01;26.10;49.70
19256;DHT22;9762;52.490;13.410;2023-06-14T15:37:26;25.90;49.70
19256;DHT22;9762;52.490;13.410;2023-06-14T15:39:52;25.80;50.00
19256;DHT22;9762;52.490;13.410;2023-06-14T15:42:17;25.70;52.70
19256;DHT22;9762;52.490;13.410;2023-06-14T15:44:43;25.70;52.60
19256;DHT22;9762;52.490;13.410;2023-06-14T15:47:09;25.70;52.70
19256;DHT22;9762;52.490;13.410;2023-06-14T15:49:34;25.80;52.70
19256;DHT22;9762;52.490;13.410;2023-06-14T15:52:00;26.30;53.20
19256;DHT22;9762;52.490;13.410;2023-06-14T15:54:27;25.90;52.90
19256;DHT22;9762;52.490;13.410;2023-06-14T15:56:52;26.00;52.80
19256;DHT22;9762;52.490;13.410;2023-06-14T15:59:18;26.00;52.70
19256;DHT22;9762;52.490;13.410;2023-06-14T16:01:44;26.10;52.90